Harleton, Texas
Current Conditions -  °F | °C
As of 6:15 AM on Friday 19 Dec 2014 (Local Time) from KASL Reporting Station
Overcast Overcast  
Wind Chill: 51°   Ceiling: 500
Heat Index: 51°   Visibility: 5mi
Dew Point: 48°   Wind: 7mph
Humidity: 90%   Direction: 20°NNE
Pressure: 30.14"   Gusts: NA
Location:  32.68°N, 94.58°W
Report Text: KASL 191215Z AUTO 02006KT 5SM OVC005 11/09 A3014 RMK AO1 T01050090
Loading
Personal Weather Stations






























Interactive Weather Map New forecast layout! Learn more

10-Day Weather Forecast

Advertisements
Track Severe Weather on mobile